createdAt,value
2018-10-02T00:00:47.736Z,7.00
2018-10-02T00:03:16.519Z,6.95
2018-10-02T00:05:46.091Z,6.89
2018-10-02T00:08:14.851Z,6.80
2018-10-02T00:10:47.760Z,6.75
2018-10-02T00:13:22.562Z,6.69
2018-10-02T00:15:51.351Z,6.70
2018-10-02T00:22:08.863Z,6.68
2018-10-02T00:28:10.788Z,6.68
2018-10-02T00:30:39.736Z,6.66
2018-10-02T00:33:09.472Z,6.64
2018-10-02T00:35:39.426Z,6.63
2018-10-02T00:38:08.445Z,6.60
2018-10-02T00:40:38.331Z,6.52
2018-10-02T00:43:08.228Z,6.56
2018-10-02T00:45:38.840Z,6.46
2018-10-02T00:48:08.771Z,6.51
2018-10-02T00:50:38.434Z,6.43
2018-10-02T00:53:08.942Z,6.43
2018-10-02T00:55:38.550Z,6.39
2018-10-02T00:58:08.328Z,6.35
2018-10-02T01:00:38.657Z,6.30
2018-10-02T01:03:08.572Z,6.28
2018-10-02T01:05:37.471Z,6.26
2018-10-02T01:08:06.335Z,6.25
2018-10-02T01:10:36.333Z,6.24
2018-10-02T01:13:05.788Z,6.23
2018-10-02T01:15:34.539Z,6.21
2018-10-02T01:18:03.348Z,6.20
2018-10-02T01:20:32.768Z,6.19
2018-10-02T01:23:02.291Z,6.15
2018-10-02T01:25:31.980Z,6.11
2018-10-02T01:28:00.836Z,6.03
2018-10-02T01:30:31.279Z,6.02
2018-10-02T01:33:00.023Z,5.94
2018-10-02T01:35:28.857Z,5.91
2018-10-02T01:37:57.655Z,5.91
2018-10-02T01:40:26.406Z,5.90
2018-10-02T01:42:55.850Z,5.85
2018-10-02T01:45:25.825Z,5.83
2018-10-02T01:47:55.614Z,5.77
2018-10-02T01:50:24.667Z,5.71
2018-10-02T01:52:54.135Z,5.66
2018-10-02T01:55:23.457Z,5.62
2018-10-02T01:57:52.326Z,5.56
2018-10-02T02:00:21.948Z,5.52
2018-10-02T02:02:50.696Z,5.49
2018-10-02T02:05:19.544Z,5.45
2018-10-02T02:07:49.126Z,5.42
2018-10-02T02:10:17.914Z,5.37
2018-10-02T02:12:47.264Z,5.31
2018-10-02T02:15:16.106Z,5.34
2018-10-02T02:17:44.927Z,5.32
2018-10-02T02:20:14.658Z,5.31
2018-10-02T02:22:44.317Z,5.28
2018-10-02T02:25:13.110Z,5.26
2018-10-02T02:27:41.917Z,5.25
2018-10-02T02:30:11.709Z,5.22
2018-10-02T02:32:40.599Z,5.20
2018-10-02T02:35:10.252Z,5.18
2018-10-02T02:37:39.307Z,5.15
2018-10-02T02:40:08.489Z,5.12
2018-10-02T02:42:38.331Z,5.09
2018-10-02T02:45:08.105Z,5.07
2018-10-02T02:47:42.032Z,5.04
2018-10-02T02:50:16.208Z,5.01
2018-10-02T02:52:50.653Z,5.00
2018-10-02T02:55:19.521Z,4.96
2018-10-02T02:57:48.295Z,4.94
2018-10-02T03:00:18.123Z,4.93
2018-10-02T03:02:46.990Z,4.91
2018-10-02T03:05:19.512Z,4.90
2018-10-02T03:07:48.311Z,4.89
2018-10-02T03:10:17.311Z,4.86
2018-10-02T03:12:46.504Z,4.86
2018-10-02T03:15:15.303Z,4.84
2018-10-02T03:17:44.093Z,4.82
2018-10-02T03:20:13.680Z,4.81
2018-10-02T03:22:43.044Z,4.76
2018-10-02T03:25:11.860Z,4.74
2018-10-02T03:27:40.688Z,4.71
2018-10-02T03:30:09.551Z,4.70
2018-10-02T03:32:38.463Z,4.69
2018-10-02T03:35:08.306Z,4.67
2018-10-02T03:37:38.541Z,4.68
2018-10-02T03:40:09.759Z,4.66
2018-10-02T03:42:39.703Z,4.65
2018-10-02T03:45:10.027Z,4.64
2018-10-02T03:47:39.080Z,4.63
2018-10-02T03:50:08.431Z,4.64
2018-10-02T03:52:38.208Z,4.62
2018-10-02T03:55:08.257Z,4.60
2018-10-02T03:57:37.505Z,4.59
2018-10-02T04:00:08.279Z,4.58
2018-10-02T04:02:37.452Z,4.51
2018-10-02T04:05:06.971Z,4.54
2018-10-02T04:07:35.889Z,4.50
2018-10-02T04:10:04.719Z,4.50
2018-10-02T04:12:34.052Z,4.47
2018-10-02T04:15:02.827Z,4.44
2018-10-02T04:17:31.596Z,4.41
2018-10-02T04:20:01.959Z,4.39
2018-10-02T04:22:31.892Z,4.37
2018-10-02T04:25:00.656Z,4.38
2018-10-02T04:27:29.867Z,4.39
2018-10-02T04:29:58.680Z,4.41
2018-10-02T04:32:27.435Z,4.40
2018-10-02T04:34:56.419Z,4.41
2018-10-02T04:37:26.031Z,4.40
2018-10-02T04:39:58.203Z,4.41
2018-10-02T04:42:27.794Z,4.40
2018-10-02T04:44:57.472Z,4.40
2018-10-02T04:47:26.264Z,4.41
2018-10-02T04:49:55.237Z,4.40
2018-10-02T04:52:24.702Z,4.42
2018-10-02T04:54:53.567Z,4.43
2018-10-02T04:57:22.422Z,4.44
2018-10-02T04:59:51.996Z,4.46
2018-10-02T05:02:21.438Z,4.49
2018-10-02T05:04:50.314Z,4.52
2018-10-02T05:07:19.147Z,4.53
2018-10-02T05:09:47.961Z,4.55
2018-10-02T05:12:17.841Z,4.56
2018-10-02T05:14:46.635Z,4.59
2018-10-02T05:17:15.469Z,4.63
2018-10-02T05:19:45.008Z,4.67
2018-10-02T05:22:14.763Z,4.69
2018-10-02T05:24:44.267Z,4.72
2018-10-02T05:27:15.405Z,4.74
2018-10-02T05:29:44.126Z,4.77
2018-10-02T05:32:12.943Z,4.81
2018-10-02T05:34:42.323Z,4.84
2018-10-02T05:37:11.129Z,4.86
2018-10-02T05:39:40.488Z,4.88
2018-10-02T05:42:19.115Z,4.91
2018-10-02T05:44:49.220Z,4.95
2018-10-02T05:47:18.000Z,5.00
2018-10-02T05:49:46.780Z,5.05
2018-10-02T05:52:16.044Z,5.11
2018-10-02T05:54:44.801Z,5.20
2018-10-02T05:57:13.876Z,5.27
2018-10-02T06:00:14.249Z,5.31
2018-10-02T06:02:43.126Z,5.37
2018-10-02T06:05:13.093Z,5.42
2018-10-02T06:07:41.980Z,5.47
2018-10-02T06:10:11.788Z,5.52
2018-10-02T06:12:41.153Z,5.58
2018-10-02T06:15:10.195Z,5.68
2018-10-02T06:17:39.703Z,5.74
2018-10-02T06:20:10.229Z,5.73
2018-10-02T06:22:39.990Z,5.87
2018-10-02T06:25:09.487Z,5.97
2018-10-02T06:27:38.588Z,6.04
2018-10-02T06:30:08.221Z,6.14
2018-10-02T06:32:38.795Z,6.24
2018-10-02T06:35:08.000Z,6.36
2018-10-02T06:37:36.886Z,6.39
2018-10-02T06:40:06.529Z,6.44
2018-10-02T06:42:36.383Z,6.56
2018-10-02T06:45:12.208Z,6.61
2018-10-02T06:47:41.140Z,6.72
2018-10-02T06:50:11.212Z,6.74
2018-10-02T06:52:41.168Z,6.85
2018-10-02T06:55:10.431Z,6.91
2018-10-02T06:57:40.092Z,6.99
2018-10-02T07:00:20.024Z,7.05
2018-10-02T07:02:48.979Z,7.13
2018-10-02T07:05:19.246Z,7.22
2018-10-02T07:07:48.745Z,7.23
2018-10-02T07:10:17.515Z,7.25
2018-10-02T07:12:46.988Z,7.25
2018-10-02T07:15:15.900Z,7.27
2018-10-02T07:17:44.781Z,7.33
2018-10-02T07:20:15.037Z,7.40
2018-10-02T07:22:44.491Z,7.48
2018-10-02T07:25:13.284Z,7.53
2018-10-02T07:27:42.231Z,7.57
2018-10-02T07:30:12.160Z,7.60
2018-10-02T07:32:41.114Z,7.64
2018-10-02T07:35:10.699Z,7.69
2018-10-02T07:37:40.608Z,7.81
2018-10-02T07:40:09.633Z,7.90
2018-10-02T07:42:39.351Z,8.04
2018-10-02T07:45:09.245Z,8.12
2018-10-02T07:47:39.476Z,8.25
2018-10-02T07:50:08.513Z,8.36
2018-10-02T07:52:38.659Z,8.48
2018-10-02T07:55:09.103Z,8.54
2018-10-02T07:57:38.068Z,8.63
2018-10-02T08:00:08.147Z,8.72
2018-10-02T08:02:41.087Z,8.77
2018-10-02T08:05:11.183Z,8.79
2018-10-02T08:07:40.297Z,8.81
2018-10-02T08:10:09.388Z,8.81
2018-10-02T08:12:39.103Z,8.83
2018-10-02T08:15:08.293Z,8.86
2018-10-02T08:17:37.858Z,8.90
2018-10-02T08:20:07.338Z,8.98
2018-10-02T08:22:37.135Z,9.03
2018-10-02T08:25:06.628Z,9.11
2018-10-02T08:27:35.867Z,9.14
2018-10-02T08:30:04.799Z,9.23
2018-10-02T08:32:34.658Z,9.30
2018-10-02T08:35:03.500Z,9.41
2018-10-02T08:37:32.320Z,9.48
2018-10-02T08:40:01.177Z,9.57
2018-10-02T08:42:30.768Z,9.65
2018-10-02T08:45:00.729Z,9.72
2018-10-02T08:47:29.663Z,9.82
2018-10-02T08:49:58.409Z,9.90
2018-10-02T08:52:27.607Z,10.00
2018-10-02T08:54:57.005Z,10.10
2018-10-02T08:57:25.956Z,10.18
2018-10-02T08:59:55.844Z,10.23
2018-10-02T09:02:24.676Z,10.29
2018-10-02T09:04:53.490Z,10.29
2018-10-02T09:07:22.411Z,10.27
2018-10-02T09:09:51.196Z,10.30
2018-10-02T09:12:20.569Z,10.36
2018-10-02T09:14:49.332Z,10.44
2018-10-02T09:17:18.104Z,10.51
2018-10-02T09:19:47.657Z,10.60
2018-10-02T09:22:17.311Z,10.73
2018-10-02T09:24:46.733Z,10.80
2018-10-02T09:27:15.619Z,10.91
2018-10-02T09:29:49.496Z,10.90
2018-10-02T09:34:26.021Z,10.95
2018-10-02T09:37:00.186Z,10.97
2018-10-02T09:39:34.239Z,11.04
2018-10-02T09:42:09.085Z,11.13
2018-10-02T09:44:39.792Z,11.22
2018-10-02T09:47:10.035Z,11.35
2018-10-02T09:49:39.044Z,11.42
2018-10-02T09:52:08.548Z,11.45
2018-10-02T09:54:37.452Z,11.46
2018-10-02T09:57:06.591Z,11.47
2018-10-02T09:59:35.951Z,11.45
2018-10-02T10:02:09.836Z,11.34
2018-10-02T10:04:40.256Z,11.24
2018-10-02T10:07:10.209Z,11.18
2018-10-02T10:09:40.192Z,11.13
2018-10-02T10:12:10.541Z,11.02
2018-10-02T10:14:40.283Z,10.95
2018-10-02T10:17:09.444Z,10.91
2018-10-02T10:19:38.957Z,11.00
2018-10-02T10:22:08.673Z,11.02
2018-10-02T10:24:38.227Z,11.01
2018-10-02T10:27:08.092Z,10.98
2018-10-02T10:29:36.913Z,10.99
2018-10-02T10:32:05.848Z,10.94
2018-10-02T10:34:34.780Z,10.93
2018-10-02T10:37:03.751Z,10.96
2018-10-02T10:39:33.963Z,11.02
2018-10-02T10:42:03.419Z,11.09
2018-10-02T10:44:33.144Z,11.18
2018-10-02T10:47:02.850Z,11.19
2018-10-02T10:49:31.917Z,11.21
2018-10-02T10:52:01.516Z,11.18
2018-10-02T10:54:30.364Z,11.12
2018-10-02T10:56:59.179Z,11.12
2018-10-02T10:59:28.580Z,11.19
2018-10-02T11:01:57.416Z,11.30
2018-10-02T11:04:26.461Z,11.43
2018-10-02T11:06:55.297Z,11.54
2018-10-02T11:09:24.741Z,11.67
2018-10-02T11:11:54.823Z,11.76
2018-10-02T11:14:23.868Z,11.85
2018-10-02T11:16:52.708Z,11.85
2018-10-02T11:19:21.602Z,11.86
2018-10-02T11:21:51.099Z,11.85
2018-10-02T11:24:20.496Z,11.87
2018-10-02T11:26:49.276Z,11.97
2018-10-02T11:29:18.165Z,11.97
2018-10-02T11:31:47.059Z,11.96
2018-10-02T11:34:15.869Z,11.95
2018-10-02T11:36:44.787Z,11.94
2018-10-02T11:39:13.638Z,11.90
2018-10-02T11:41:42.541Z,11.84
2018-10-02T11:44:11.941Z,11.83
2018-10-02T11:46:41.277Z,11.75
2018-10-02T11:49:10.565Z,11.75
2018-10-02T11:51:40.656Z,11.77
2018-10-02T11:54:09.602Z,11.77
2018-10-02T11:56:38.633Z,11.74
2018-10-02T11:59:08.585Z,11.73
2018-10-02T12:01:38.476Z,11.72
2018-10-02T12:04:07.995Z,11.77
2018-10-02T12:06:37.022Z,11.76
2018-10-02T12:09:08.572Z,11.78
2018-10-02T12:11:39.500Z,11.83
2018-10-02T12:14:09.918Z,11.89
2018-10-02T12:16:40.399Z,12.04
2018-10-02T12:19:10.001Z,12.12
2018-10-02T12:21:41.277Z,12.31
2018-10-02T12:24:10.904Z,12.49
2018-10-02T12:26:39.830Z,12.57
2018-10-02T12:29:09.300Z,12.51
2018-10-02T12:31:39.261Z,12.38
2018-10-02T12:34:08.401Z,12.34
2018-10-02T12:36:38.558Z,12.30
2018-10-02T12:39:08.582Z,12.19
2018-10-02T12:41:38.792Z,12.05
2018-10-02T12:44:08.592Z,11.94
2018-10-02T12:46:39.411Z,11.88
2018-10-02T12:49:08.728Z,11.82
2018-10-02T12:51:38.701Z,11.72
2018-10-02T12:54:08.226Z,11.71
2018-10-02T12:56:37.554Z,11.78
2018-10-02T12:59:07.502Z,11.83
2018-10-02T13:01:36.868Z,11.83
2018-10-02T13:04:06.021Z,11.84
2018-10-02T13:06:34.966Z,11.84
2018-10-02T13:09:05.520Z,11.85
2018-10-02T13:11:34.884Z,11.89
2018-10-02T13:14:03.712Z,11.88
2018-10-02T13:16:33.951Z,11.86
2018-10-02T13:19:02.718Z,11.76
2018-10-02T13:21:32.253Z,11.59
2018-10-02T13:24:01.624Z,11.48
2018-10-02T13:26:30.449Z,11.34
2018-10-02T13:28:59.409Z,11.23
2018-10-02T13:31:28.449Z,11.17
2018-10-02T13:33:57.212Z,11.08
2018-10-02T13:36:26.378Z,11.02
2018-10-02T13:38:55.434Z,10.97
2018-10-02T13:41:24.531Z,10.90
2018-10-02T13:43:54.329Z,10.79
2018-10-02T13:46:24.810Z,10.65
2018-10-02T13:48:53.652Z,10.52
2018-10-02T13:51:22.905Z,10.42
2018-10-02T13:53:51.708Z,10.29
2018-10-02T13:56:20.647Z,10.25
2018-10-02T13:58:50.198Z,10.19
2018-10-02T14:01:26.078Z,10.18
2018-10-02T14:03:55.683Z,10.09
2018-10-02T14:06:24.621Z,10.02
2018-10-02T14:08:53.539Z,9.95
2018-10-02T14:11:23.985Z,9.87
2018-10-02T14:13:53.486Z,9.80
2018-10-02T14:16:22.491Z,9.73
2018-10-02T14:18:51.249Z,9.70
2018-10-02T14:21:20.964Z,9.61
2018-10-02T14:23:50.273Z,9.54
2018-10-02T14:26:19.132Z,9.49
2018-10-02T14:28:47.975Z,9.43
2018-10-02T14:31:16.829Z,9.38
2018-10-02T14:33:45.656Z,9.32
2018-10-02T14:36:14.545Z,9.27
2018-10-02T14:38:44.099Z,9.24
2018-10-02T14:41:12.976Z,9.22
2018-10-02T14:43:42.267Z,9.17
2018-10-02T14:46:11.520Z,9.16
2018-10-02T14:48:41.034Z,9.17
2018-10-02T14:51:10.775Z,9.20
2018-10-02T14:53:40.234Z,9.21
2018-10-02T14:56:09.437Z,9.22
2018-10-02T14:58:39.076Z,9.21
2018-10-02T15:01:14.872Z,9.18
2018-10-02T15:03:43.660Z,9.17
2018-10-02T15:06:12.745Z,9.16
2018-10-02T15:08:41.568Z,9.17
2018-10-02T15:11:11.396Z,9.18
2018-10-02T15:13:40.416Z,9.15
2018-10-02T15:16:09.997Z,9.16
2018-10-02T15:18:39.087Z,9.11
2018-10-02T15:21:09.589Z,9.05
2018-10-02T15:23:40.043Z,8.97
2018-10-02T15:26:09.370Z,8.88
2018-10-02T15:28:38.670Z,8.85
2018-10-02T15:31:08.594Z,8.85
2018-10-02T15:33:37.546Z,8.79
2018-10-02T15:36:06.735Z,8.75
2018-10-02T15:38:35.705Z,8.73
2018-10-02T15:41:04.568Z,8.74
2018-10-02T15:43:34.497Z,8.73
2018-10-02T15:46:03.954Z,8.74
2018-10-02T15:48:33.459Z,8.80
2018-10-02T15:51:02.375Z,8.81
2018-10-02T15:53:31.960Z,8.82
2018-10-02T15:56:31.464Z,8.80
2018-10-02T15:59:01.190Z,8.72
2018-10-02T16:01:30.533Z,8.62
2018-10-02T16:03:59.679Z,8.59
2018-10-02T16:06:29.473Z,8.56
2018-10-02T16:08:58.966Z,8.56
2018-10-02T16:11:28.384Z,8.56
2018-10-02T16:13:57.367Z,8.58
2018-10-02T16:16:26.464Z,8.59
2018-10-02T16:18:55.584Z,8.56
2018-10-02T16:21:26.335Z,8.51
2018-10-02T16:23:55.962Z,8.46
2018-10-02T16:26:25.739Z,8.46
2018-10-02T16:28:55.678Z,8.43
2018-10-02T16:31:26.127Z,8.45
2018-10-02T16:33:55.609Z,8.43
2018-10-02T16:36:25.248Z,8.42
2018-10-02T16:38:54.411Z,8.43
2018-10-02T16:41:23.479Z,8.46
2018-10-02T16:43:52.933Z,8.49
2018-10-02T16:46:22.580Z,8.48
2018-10-02T16:48:51.407Z,8.50
2018-10-02T16:51:20.975Z,8.53
2018-10-02T16:53:49.778Z,8.55
2018-10-02T16:56:18.696Z,8.55
2018-10-02T16:58:48.083Z,8.54
2018-10-02T17:01:17.435Z,8.54
2018-10-02T17:03:46.299Z,8.55
2018-10-02T17:06:16.648Z,8.56
2018-10-02T17:08:45.419Z,8.55
2018-10-02T17:11:14.947Z,8.51
2018-10-02T17:13:44.476Z,8.49
2018-10-02T17:16:13.886Z,8.48
2018-10-02T17:18:42.843Z,8.41
2018-10-02T17:21:12.756Z,8.41
2018-10-02T17:23:41.943Z,8.45
2018-10-02T17:26:11.822Z,8.46
2018-10-02T17:28:41.544Z,8.49
2018-10-02T17:31:10.576Z,8.51
2018-10-02T17:33:39.824Z,8.48
2018-10-02T17:36:11.172Z,8.48
2018-10-02T17:38:40.216Z,8.47
2018-10-02T17:41:10.217Z,8.48
2018-10-02T17:43:41.404Z,8.49
2018-10-02T17:46:11.019Z,8.50
2018-10-02T17:48:40.046Z,8.53
2018-10-02T17:51:10.145Z,8.55
2018-10-02T17:53:40.501Z,8.57
2018-10-02T17:56:09.545Z,8.58
2018-10-02T17:58:39.230Z,8.59
2018-10-02T18:01:08.837Z,8.62
2018-10-02T18:03:38.447Z,8.61
2018-10-02T18:06:07.500Z,8.64
2018-10-02T18:08:37.467Z,8.61
2018-10-02T18:11:08.245Z,8.61
2018-10-02T18:13:37.324Z,8.58
2018-10-02T18:16:06.920Z,8.58
2018-10-02T18:18:37.973Z,8.56
2018-10-02T18:21:08.369Z,8.54
2018-10-02T18:23:38.581Z,8.54
2018-10-02T18:26:07.914Z,8.53
2018-10-02T18:28:37.320Z,8.53
2018-10-02T18:31:06.358Z,8.55
2018-10-02T18:33:35.147Z,8.54
2018-10-02T18:36:04.268Z,8.53
2018-10-02T18:38:33.221Z,8.55
2018-10-02T18:41:08.230Z,8.53
2018-10-02T18:43:37.865Z,8.52
2018-10-02T18:46:08.245Z,8.51
2018-10-02T18:48:38.384Z,8.48
2018-10-02T18:51:10.314Z,8.46
2018-10-02T18:53:40.105Z,8.38
2018-10-02T18:56:11.568Z,8.40
2018-10-02T18:58:41.800Z,8.39
2018-10-02T19:01:11.295Z,8.37
2018-10-02T19:03:41.062Z,8.39
2018-10-02T19:06:09.988Z,8.40
2018-10-02T19:08:44.518Z,8.41
2018-10-02T19:11:19.993Z,8.43
2018-10-02T19:13:48.744Z,8.45
2018-10-02T19:16:22.693Z,8.47
2018-10-02T19:18:51.520Z,8.50
2018-10-02T19:21:21.027Z,8.52
2018-10-02T19:23:50.330Z,8.54
2018-10-02T19:26:20.846Z,8.56
2018-10-02T19:28:49.936Z,8.60
2018-10-02T19:31:23.984Z,8.62
2018-10-02T19:33:53.436Z,8.63
2018-10-02T19:36:22.848Z,8.69
2018-10-02T19:38:59.184Z,8.71
2018-10-02T19:41:29.355Z,8.77
2018-10-02T19:43:58.732Z,8.80
2018-10-02T19:46:31.614Z,8.81
2018-10-02T19:49:00.463Z,8.81
2018-10-02T19:52:40.567Z,8.81
2018-10-02T19:55:09.784Z,8.79
2018-10-02T19:57:40.065Z,8.83
2018-10-02T20:00:10.768Z,8.83
2018-10-02T20:02:41.375Z,8.85
2018-10-02T20:05:10.759Z,8.88
2018-10-02T20:07:39.797Z,8.94
2018-10-02T20:10:09.535Z,8.99
2018-10-02T20:12:40.070Z,9.04
2018-10-02T20:15:08.869Z,9.07
2018-10-02T20:17:38.740Z,9.13
2018-10-02T20:20:09.763Z,9.19
2018-10-02T20:22:39.230Z,9.23
2018-10-02T20:25:08.784Z,9.24
2018-10-02T20:27:38.227Z,9.26
2018-10-02T20:30:08.268Z,9.27
2018-10-02T20:32:38.068Z,9.26
2018-10-02T20:35:06.953Z,9.25
2018-10-02T20:37:36.553Z,9.27
2018-10-02T20:40:05.352Z,9.26
2018-10-02T20:42:34.888Z,9.26
2018-10-02T20:45:03.735Z,9.22
2018-10-02T20:47:33.127Z,9.23
2018-10-02T20:50:01.940Z,9.23
2018-10-02T20:52:31.404Z,9.23
2018-10-02T20:55:00.252Z,9.23
2018-10-02T20:57:29.740Z,9.24
2018-10-02T20:59:59.086Z,9.25
2018-10-02T21:02:28.501Z,9.25
2018-10-02T21:04:57.277Z,9.22
2018-10-02T21:07:26.209Z,9.20
2018-10-02T21:09:56.244Z,9.17
2018-10-02T21:12:26.500Z,9.13
2018-10-02T21:14:59.639Z,9.14
2018-10-02T21:17:33.089Z,9.13
2018-10-02T21:20:02.906Z,9.09
2018-10-02T21:22:32.796Z,9.06
2018-10-02T21:25:01.677Z,9.05
2018-10-02T21:27:30.450Z,9.02
2018-10-02T21:29:59.867Z,9.01
2018-10-02T21:32:29.301Z,8.99
2018-10-02T21:34:58.080Z,8.96
2018-10-02T21:37:26.899Z,8.91
2018-10-02T21:40:02.361Z,8.85
2018-10-02T21:42:31.965Z,8.80
2018-10-02T21:45:01.142Z,8.77
2018-10-02T21:47:29.932Z,8.75
2018-10-02T21:49:58.873Z,8.73
2018-10-02T21:52:28.173Z,8.71
2018-10-02T21:54:58.195Z,8.70
2018-10-02T21:57:27.003Z,8.71
2018-10-02T21:59:56.586Z,8.74
2018-10-02T22:02:26.039Z,8.75
2018-10-02T22:04:55.380Z,8.70
2018-10-02T22:07:24.337Z,8.71
2018-10-02T22:09:53.491Z,8.71
2018-10-02T22:12:22.729Z,8.70
2018-10-02T22:14:51.545Z,8.73
2018-10-02T22:17:20.329Z,8.77
2018-10-02T22:19:50.024Z,8.78
2018-10-02T22:22:19.455Z,8.82
2018-10-02T22:24:49.209Z,8.84
2018-10-02T22:27:17.971Z,8.86
2018-10-02T22:29:46.724Z,8.88
2018-10-02T22:32:15.527Z,8.85
2018-10-02T22:34:44.629Z,8.89
2018-10-02T22:37:13.599Z,8.89
2018-10-02T22:39:42.422Z,8.92
2018-10-02T22:42:11.796Z,8.91
2018-10-02T22:44:40.641Z,8.87
2018-10-02T22:47:10.253Z,8.81
2018-10-02T22:49:39.993Z,8.80
2018-10-02T22:52:09.260Z,8.69
2018-10-02T22:54:38.884Z,8.64
2018-10-02T22:57:07.776Z,8.57
2018-10-02T22:59:38.851Z,8.55
2018-10-02T23:02:08.654Z,8.51
2018-10-02T23:04:38.666Z,8.48
2018-10-02T23:07:07.711Z,8.38
2018-10-02T23:09:36.529Z,8.31
2018-10-02T23:12:05.959Z,8.26
2018-10-02T23:14:34.690Z,8.20
2018-10-02T23:17:03.490Z,8.13
2018-10-02T23:19:32.383Z,8.10
2018-10-02T23:22:01.744Z,8.06
2018-10-02T23:24:30.988Z,8.03
2018-10-02T23:26:59.768Z,7.99
2018-10-02T23:29:28.546Z,7.99
2018-10-02T23:31:57.337Z,7.95
2018-10-02T23:34:26.261Z,7.93
2018-10-02T23:37:00.118Z,7.90
2018-10-02T23:39:28.986Z,7.88
2018-10-02T23:41:58.634Z,7.87
2018-10-02T23:44:27.400Z,7.87
2018-10-02T23:46:56.651Z,7.93
2018-10-02T23:49:26.940Z,7.97
2018-10-02T23:51:57.375Z,7.99
2018-10-02T23:54:26.645Z,7.99
2018-10-02T23:56:55.521Z,7.93
2018-10-02T23:59:25.015Z,7.89
